Time;durP1;ratioP1;P1;durP2;ratioP2;P2;SDS_P1;SDS_P2;PMS_P1;PMS_P2;Temp;Humidity;BMP_temperature;BMP_pressure;BME280_temperature;BME280_humidity;BME280_pressure;Samples;Min_cycle;Max_cycle;Signal;HPM_P1;HPM_P2
2023/09/27 00:00:34;;;;;;;6.35;3.00;;;15.00;99.90;;;;;;5091998;28;20032;-54
2023/09/27 00:03:00;;;;;;;4.93;3.13;;;15.00;99.90;;;;;;5092134;28;20032;-54
2023/09/27 00:05:27;;;;;;;4.72;2.75;;;15.00;99.90;;;;;;5092493;28;20028;-54
2023/09/27 00:07:52;;;;;;;6.40;2.88;;;15.00;99.90;;;;;;5091871;28;20028;-54
2023/09/27 00:10:18;;;;;;;4.80;3.42;;;15.00;99.90;;;;;;5091657;28;20119;-53
2023/09/27 00:12:45;;;;;;;5.90;3.20;;;15.20;99.90;;;;;;5091877;28;20118;-51
2023/09/27 00:15:12;;;;;;;4.97;3.13;;;15.20;99.90;;;;;;5092028;28;20028;-52
2023/09/27 00:17:38;;;;;;;5.65;3.42;;;15.30;99.90;;;;;;5091739;28;20554;-49
2023/09/27 00:20:11;;;;;;;5.47;3.13;;;15.30;99.90;;;;;;5073047;28;20119;-52
2023/09/27 00:22:37;;;;;;;6.78;3.45;;;15.30;99.90;;;;;;5091644;28;20035;-54
2023/09/27 00:25:04;;;;;;;5.25;3.30;;;15.30;99.90;;;;;;5091749;28;20039;-53
2023/09/27 00:27:31;;;;;;;5.32;2.55;;;15.30;99.90;;;;;;5091858;28;20036;-52
2023/09/27 00:29:57;;;;;;;5.53;3.15;;;15.20;99.90;;;;;;5091281;28;20032;-53
2023/09/27 00:32:23;;;;;;;6.18;2.90;;;15.20;99.90;;;;;;5091531;28;20365;-51
2023/09/27 00:34:49;;;;;;;5.00;2.83;;;15.20;99.90;;;;;;5073266;28;20039;-53
2023/09/27 00:37:14;;;;;;;5.82;3.05;;;15.10;99.90;;;;;;5073153;28;20038;-53
2023/09/27 00:39:41;;;;;;;5.35;3.22;;;15.10;99.90;;;;;;5072065;28;20028;-52
2023/09/27 00:42:07;;;;;;;4.75;3.15;;;15.10;99.90;;;;;;5091121;28;20055;-52
2023/09/27 00:44:33;;;;;;;5.50;3.10;;;15.10;99.90;;;;;;5091522;28;20485;-54
2023/09/27 00:46:58;;;;;;;7.45;3.30;;;15.00;99.90;;;;;;5091791;28;20443;-53
2023/09/27 00:49:24;;;;;;;6.60;3.50;;;15.00;99.90;;;;;;5073085;28;20058;-49
2023/09/27 00:51:51;;;;;;;7.88;3.60;;;15.00;99.90;;;;;;5091058;28;20028;-51
2023/09/27 00:54:17;;;;;;;6.25;3.13;;;14.90;99.90;;;;;;5072853;28;20517;-53
2023/09/27 00:56:44;;;;;;;4.80;3.17;;;14.80;99.90;;;;;;5091092;28;20426;-53
2023/09/27 00:59:09;;;;;;;5.03;2.95;;;14.70;99.90;;;;;;5072672;28;20031;-51
2023/09/27 01:01:36;;;;;;;5.70;3.47;;;14.60;99.90;;;;;;5091031;28;20384;-53
2023/09/27 01:04:03;;;;;;;5.40;3.47;;;14.50;99.90;;;;;;5072809;28;20485;-52
2023/09/27 01:06:28;;;;;;;6.65;3.67;;;14.30;99.90;;;;;;5091095;28;20028;-49
2023/09/27 01:08:54;;;;;;;6.88;3.60;;;14.30;99.90;;;;;;5090588;28;20079;-48
2023/09/27 01:11:20;;;;;;;6.43;3.63;;;14.20;99.90;;;;;;5090980;28;20075;-49
2023/09/27 01:13:45;;;;;;;10.13;4.05;;;14.20;99.90;;;;;;5090857;28;20063;-49
2023/09/27 01:16:11;;;;;;;7.97;3.65;;;14.10;99.90;;;;;;5091224;28;20032;-50
2023/09/27 01:18:38;;;;;;;5.63;3.70;;;14.00;99.90;;;;;;5072516;28;20116;-49
2023/09/27 01:21:04;;;;;;;6.90;3.85;;;14.00;99.90;;;;;;5090629;28;20075;-49
2023/09/27 01:23:30;;;;;;;7.90;4.10;;;13.90;99.90;;;;;;5072539;28;20031;-49
2023/09/27 01:26:01;;;;;;;5.97;3.58;;;13.90;99.90;;;;;;5072604;28;20038;-49
2023/09/27 01:28:31;;;;;;;6.75;3.72;;;13.80;99.90;;;;;;5090513;28;20502;-50
2023/09/27 01:30:57;;;;;;;6.68;3.55;;;13.80;99.90;;;;;;5072330;28;20461;-51
2023/09/27 01:33:22;;;;;;;6.80;3.67;;;13.80;99.90;;;;;;5072476;28;20060;-49
2023/09/27 01:35:48;;;;;;;6.43;4.00;;;13.80;99.90;;;;;;5072717;28;20032;-48
2023/09/27 01:38:15;;;;;;;5.18;3.30;;;13.80;99.90;;;;;;5090514;28;20055;-48
2023/09/27 01:40:42;;;;;;;5.15;3.65;;;13.80;99.90;;;;;;5072208;28;20445;-52
2023/09/27 01:43:11;;;;;;;8.77;3.80;;;13.80;99.90;;;;;;5090511;28;20028;-50
2023/09/27 01:45:37;;;;;;;6.05;3.63;;;13.80;99.90;;;;;;5090515;28;20035;-51
2023/09/27 01:48:04;;;;;;;6.97;3.80;;;13.70;99.90;;;;;;5090434;28;20376;-51
2023/09/27 01:50:33;;;;;;;5.80;3.83;;;13.70;99.90;;;;;;5073276;28;20032;-49
2023/09/27 01:52:58;;;;;;;7.22;4.20;;;13.70;99.90;;;;;;5094619;28;20168;-48
2023/09/27 01:55:25;;;;;;;6.18;3.70;;;13.60;99.90;;;;;;5094482;28;20504;-51
2023/09/27 01:57:51;;;;;;;5.07;3.47;;;13.60;99.90;;;;;;5076372;28;20369;-52
2023/09/27 02:00:19;;;;;;;5.97;3.85;;;13.60;99.90;;;;;;5075807;28;20028;-53
2023/09/27 02:02:57;;;;;;;6.45;3.42;;;13.60;99.90;;;;;;5076276;28;20048;-52
2023/09/27 02:05:24;;;;;;;6.40;3.90;;;13.60;99.90;;;;;;5076100;28;20020;-52
2023/09/27 02:07:50;;;;;;;6.38;3.53;;;13.60;99.90;;;;;;5094223;28;20128;-53
2023/09/27 02:10:16;;;;;;;6.50;3.85;;;13.60;99.90;;;;;;5093860;28;20099;-53
2023/09/27 02:12:41;;;;;;;5.75;3.60;;;13.50;99.90;;;;;;5075920;28;20538;-53
2023/09/27 02:15:09;;;;;;;7.63;3.78;;;13.50;99.90;;;;;;5076155;28;20059;-53
2023/09/27 02:17:35;;;;;;;7.03;4.03;;;13.40;99.90;;;;;;5076087;28;20032;-52
2023/09/27 02:20:06;;;;;;;7.32;4.07;;;13.40;99.90;;;;;;5075511;28;20039;-53
2023/09/27 02:22:32;;;;;;;7.55;4.30;;;13.40;99.90;;;;;;5093954;28;20042;-52
2023/09/27 02:24:57;;;;;;;7.32;4.22;;;13.30;99.90;;;;;;5075757;28;20032;-53
2023/09/27 02:27:23;;;;;;;8.40;4.38;;;13.40;99.90;;;;;;5075651;28;20035;-51
2023/09/27 02:29:49;;;;;;;6.57;4.10;;;13.40;99.90;;;;;;5093907;28;20039;-52
2023/09/27 02:32:16;;;;;;;7.82;3.88;;;13.40;99.90;;;;;;5075430;28;20073;-54
2023/09/27 02:34:42;;;;;;;8.05;4.45;;;13.40;99.90;;;;;;5093831;28;20032;-53
2023/09/27 02:37:09;;;;;;;6.70;4.03;;;13.30;99.90;;;;;;5075414;28;20128;-53
2023/09/27 02:39:35;;;;;;;7.85;4.22;;;13.30;99.90;;;;;;5093354;28;20508;-53
2023/09/27 02:42:01;;;;;;;6.95;3.97;;;13.30;99.90;;;;;;5093851;28;20024;-52
2023/09/27 02:44:27;;;;;;;8.82;4.10;;;13.30;99.90;;;;;;5075509;28;20028;-49
2023/09/27 02:46:53;;;;;;;8.63;4.57;;;13.30;99.90;;;;;;5075824;28;20107;-50
2023/09/27 02:49:19;;;;;;;9.38;4.50;;;13.40;99.90;;;;;;5093683;28;20448;-50
2023/09/27 02:51:47;;;;;;;5.82;3.70;;;13.40;99.90;;;;;;5075380;28;20161;-51
2023/09/27 02:54:14;;;;;;;9.93;4.43;;;13.40;99.90;;;;;;5075294;28;20437;-50
2023/09/27 02:56:46;;;;;;;8.55;3.95;;;13.50;99.90;;;;;;5093690;28;20036;-49
2023/09/27 02:59:13;;;;;;;6.65;3.95;;;13.40;99.90;;;;;;5093553;28;20024;-48
2023/09/27 03:01:41;;;;;;;8.20;4.13;;;13.50;99.90;;;;;;5074247;28;20021;-48
2023/09/27 03:04:08;;;;;;;8.98;4.45;;;13.50;99.90;;;;;;5093267;28;20031;-49
2023/09/27 03:06:37;;;;;;;7.53;3.95;;;13.60;99.90;;;;;;5093475;28;20044;-49
2023/09/27 03:09:08;;;;;;;10.27;4.82;;;13.80;99.90;;;;;;5074965;28;20031;-48
2023/09/27 03:11:34;;;;;;;6.47;3.92;;;13.90;99.90;;;;;;5093088;28;20036;-49
2023/09/27 03:14:00;;;;;;;7.93;4.40;;;14.00;99.90;;;;;;5075311;28;20140;-51
2023/09/27 03:16:26;;;;;;;6.15;3.55;;;13.90;99.90;;;;;;5074931;28;20036;-51
2023/09/27 03:18:54;;;;;;;5.63;3.80;;;13.90;99.90;;;;;;5074615;28;20032;-53
2023/09/27 03:21:20;;;;;;;7.65;4.25;;;13.90;99.90;;;;;;5074536;28;20024;-54
2023/09/27 03:23:46;;;;;;;7.03;4.28;;;13.80;99.90;;;;;;5074662;28;20072;-52
2023/09/27 03:26:12;;;;;;;5.90;3.83;;;13.80;99.90;;;;;;5074837;28;20381;-54
2023/09/27 03:28:40;;;;;;;6.55;4.07;;;13.80;99.90;;;;;;5074774;28;20088;-50
2023/09/27 03:31:05;;;;;;;7.97;4.55;;;13.80;99.90;;;;;;5074929;28;20039;-53
2023/09/27 03:33:31;;;;;;;7.32;4.00;;;13.80;99.90;;;;;;5074518;28;20024;-52
2023/09/27 03:35:57;;;;;;;6.22;3.97;;;13.70;99.90;;;;;;5074446;28;20437;-53
2023/09/27 03:38:25;;;;;;;8.48;3.80;;;13.80;99.90;;;;;;5074259;28;20024;-50
2023/09/27 03:40:51;;;;;;;9.25;3.95;;;13.80;99.90;;;;;;5074584;28;20032;-54
2023/09/27 03:43:17;;;;;;;9.73;4.28;;;13.70;99.90;;;;;;5074426;28;20034;-53
2023/09/27 03:45:43;;;;;;;8.27;4.10;;;13.60;99.90;;;;;;5074597;28;20024;-54
2023/09/27 03:48:08;;;;;;;8.30;4.03;;;13.60;99.90;;;;;;5074240;28;20032;-52
2023/09/27 03:50:34;;;;;;;7.90;4.30;;;13.80;99.90;;;;;;5073936;28;20032;-51
2023/09/27 03:53:00;;;;;;;9.88;4.47;;;13.80;99.90;;;;;;5092650;28;20051;-54
2023/09/27 03:55:25;;;;;;;7.78;5.32;;;13.90;99.90;;;;;;5074350;28;20489;-54
2023/09/27 03:57:51;;;;;;;6.72;4.32;;;13.90;99.90;;;;;;5074458;28;20028;-54
2023/09/27 04:00:18;;;;;;;7.97;4.22;;;13.90;99.90;;;;;;5092219;28;20069;-54
2023/09/27 04:02:46;;;;;;;6.97;4.20;;;14.00;99.90;;;;;;5074264;28;20391;-53
2023/09/27 04:05:13;;;;;;;8.00;4.45;;;14.10;99.90;;;;;;5074084;28;20041;-53
2023/09/27 04:07:39;;;;;;;7.65;4.47;;;14.10;99.90;;;;;;5074103;28;20262;-52
2023/09/27 04:10:07;;;;;;;8.00;4.38;;;14.10;99.90;;;;;;5073677;28;20043;-54
2023/09/27 04:12:33;;;;;;;8.25;4.63;;;14.10;99.90;;;;;;5092094;28;20039;-53
2023/09/27 04:14:59;;;;;;;7.95;4.63;;;14.00;99.90;;;;;;5091909;28;20036;-53
2023/09/27 04:17:25;;;;;;;7.22;4.05;;;14.10;99.90;;;;;;5091698;28;20047;-53
2023/09/27 04:19:53;;;;;;;6.97;3.90;;;14.10;99.90;;;;;;5091673;28;20067;-54
2023/09/27 04:22:19;;;;;;;6.35;3.90;;;14.10;99.90;;;;;;5091711;28;20039;-53
2023/09/27 04:24:45;;;;;;;6.43;3.85;;;14.00;99.90;;;;;;5091836;28;20392;-51
2023/09/27 04:27:11;;;;;;;7.10;4.07;;;14.00;99.90;;;;;;5092089;28;20040;-54
2023/09/27 04:29:37;;;;;;;8.30;4.65;;;14.00;99.90;;;;;;5091466;28;20089;-52
2023/09/27 04:32:03;;;;;;;6.10;3.95;;;13.90;99.90;;;;;;5091365;28;20056;-50
2023/09/27 04:34:28;;;;;;;7.90;4.32;;;13.90;99.90;;;;;;5091500;28;20028;-52
2023/09/27 04:36:54;;;;;;;7.00;4.03;;;13.90;99.90;;;;;;5091373;28;20381;-54
2023/09/27 04:39:20;;;;;;;7.35;4.30;;;13.90;99.90;;;;;;5091410;28;20080;-53
2023/09/27 04:41:46;;;;;;;8.48;4.18;;;13.90;99.90;;;;;;5091183;28;20061;-51
2023/09/27 04:44:15;;;;;;;7.82;4.00;;;13.90;99.90;;;;;;5091765;28;20035;-54
2023/09/27 04:46:41;;;;;;;7.15;4.43;;;13.90;99.90;;;;;;5091358;28;20031;-53
2023/09/27 04:49:07;;;;;;;9.55;4.38;;;13.80;99.90;;;;;;5091112;28;20028;-53
2023/09/27 04:51:35;;;;;;;7.95;4.15;;;13.70;99.90;;;;;;5090946;28;20032;-54
2023/09/27 04:54:02;;;;;;;9.57;4.90;;;13.60;99.90;;;;;;5091252;28;20039;-54
2023/09/27 04:56:29;;;;;;;7.05;4.32;;;13.50;99.90;;;;;;5091094;28;20408;-51
2023/09/27 04:58:56;;;;;;;8.02;4.72;;;13.40;99.90;;;;;;5090974;28;20111;-55
2023/09/27 05:01:26;;;;;;;7.40;4.53;;;13.30;99.90;;;;;;5090724;28;20024;-54
2023/09/27 05:03:51;;;;;;;7.80;4.30;;;13.20;99.90;;;;;;5091063;28;20032;-54
2023/09/27 05:06:17;;;;;;;8.27;4.80;;;13.10;99.90;;;;;;5091149;28;20090;-53
2023/09/27 05:08:42;;;;;;;8.88;4.72;;;13.10;99.90;;;;;;5090759;28;20055;-54
2023/09/27 05:11:08;;;;;;;7.38;4.57;;;13.00;99.90;;;;;;5072608;28;20499;-54
2023/09/27 05:13:34;;;;;;;7.70;4.32;;;13.00;99.90;;;;;;5090906;28;20149;-52
2023/09/27 05:15:59;;;;;;;9.25;4.80;;;12.90;99.90;;;;;;5090665;28;20070;-52
2023/09/27 05:18:25;;;;;;;6.82;4.60;;;13.00;99.90;;;;;;5090571;28;20024;-50
2023/09/27 05:20:51;;;;;;;7.10;4.68;;;12.90;99.90;;;;;;5090631;28;20318;-54
2023/09/27 05:23:16;;;;;;;9.98;5.05;;;12.90;99.90;;;;;;5090864;28;20059;-53
2023/09/27 05:25:42;;;;;;;7.95;5.10;;;12.90;99.90;;;;;;5090151;28;20361;-54
2023/09/27 05:28:09;;;;;;;10.63;5.35;;;12.80;99.90;;;;;;5090636;28;20421;-53
2023/09/27 05:30:34;;;;;;;9.68;5.43;;;12.90;99.90;;;;;;5090187;28;20060;-52
2023/09/27 05:33:00;;;;;;;11.20;5.90;;;12.80;99.90;;;;;;5090791;28;20071;-53
2023/09/27 05:35:26;;;;;;;10.00;5.93;;;12.70;99.90;;;;;;5090643;28;20048;-49
2023/09/27 05:37:52;;;;;;;7.07;4.55;;;12.70;99.90;;;;;;5072562;28;20032;-54
2023/09/27 05:40:18;;;;;;;8.32;4.90;;;12.70;99.90;;;;;;5090184;28;20071;-53
2023/09/27 05:42:43;;;;;;;12.18;6.47;;;12.60;99.90;;;;;;5090601;28;20087;-54
2023/09/27 05:45:13;;;;;;;8.40;5.25;;;12.60;99.90;;;;;;5090581;28;20020;-54
2023/09/27 05:47:39;;;;;;;13.52;5.43;;;12.60;99.90;;;;;;5090373;28;20036;-54
2023/09/27 05:50:08;;;;;;;12.60;5.93;;;12.70;99.90;;;;;;5090128;28;20047;-54
2023/09/27 05:52:35;;;;;;;10.52;5.15;;;12.70;99.90;;;;;;5072524;28;20032;-53
2023/09/27 05:55:01;;;;;;;9.55;5.45;;;12.80;99.90;;;;;;5072311;28;20481;-54
2023/09/27 05:57:27;;;;;;;9.50;5.30;;;12.90;99.90;;;;;;5090194;28;20036;-53
2023/09/27 05:59:53;;;;;;;8.70;5.15;;;12.90;99.90;;;;;;5090241;28;20028;-54
2023/09/27 06:02:20;;;;;;;9.52;5.90;;;12.90;99.90;;;;;;5090252;28;20078;-51
2023/09/27 06:04:47;;;;;;;10.02;5.50;;;13.00;99.90;;;;;;5090401;28;20028;-53
2023/09/27 06:07:14;;;;;;;9.52;5.57;;;13.00;99.90;;;;;;5090359;28;20089;-54
2023/09/27 06:09:41;;;;;;;10.57;4.95;;;13.00;99.90;;;;;;5090195;28;20097;-54
2023/09/27 06:12:08;;;;;;;9.27;5.22;;;13.10;99.90;;;;;;5090145;28;20067;-54
2023/09/27 06:14:34;;;;;;;8.15;5.30;;;13.20;99.90;;;;;;5090604;28;20035;-54
2023/09/27 06:17:02;;;;;;;7.80;5.07;;;13.30;99.90;;;;;;5072338;28;20430;-54
2023/09/27 06:19:28;;;;;;;10.40;5.32;;;13.50;99.90;;;;;;5072038;28;20024;-53
2023/09/27 06:21:53;;;;;;;12.88;7.85;;;13.80;99.90;;;;;;5090006;28;20544;-54
2023/09/27 06:24:19;;;;;;;7.68;4.72;;;13.90;99.90;;;;;;5090182;28;20036;-54
2023/09/27 06:26:44;;;;;;;10.57;5.18;;;14.00;99.90;;;;;;5090125;28;20032;-50
2023/09/27 06:29:10;;;;;;;8.60;5.13;;;14.10;99.90;;;;;;5089904;28;20032;-50
2023/09/27 06:31:36;;;;;;;8.60;5.10;;;14.20;99.90;;;;;;5089949;28;20199;-54
2023/09/27 06:34:01;;;;;;;7.78;4.68;;;14.40;99.90;;;;;;5090124;28;20035;-49
2023/09/27 06:36:29;;;;;;;7.82;4.38;;;14.60;99.90;;;;;;5091247;28;20024;-53
2023/09/27 06:38:56;;;;;;;10.35;5.07;;;14.70;99.90;;;;;;5093548;28;20496;-53
2023/09/27 06:41:22;;;;;;;10.30;5.20;;;14.70;99.90;;;;;;5093433;28;20035;-53
2023/09/27 06:43:48;;;;;;;8.43;4.90;;;14.70;99.90;;;;;;5093679;28;20024;-50
2023/09/27 06:46:15;;;;;;;8.90;4.78;;;14.70;99.90;;;;;;5093934;28;20036;-50
2023/09/27 06:48:41;;;;;;;9.63;4.28;;;14.80;99.90;;;;;;5093485;28;20496;-50
2023/09/27 06:51:07;;;;;;;8.90;4.63;;;14.80;99.90;;;;;;5093738;28;20043;-52
2023/09/27 06:53:33;;;;;;;7.47;4.53;;;14.90;99.90;;;;;;5094038;28;20039;-54
2023/09/27 06:55:59;;;;;;;6.53;4.60;;;14.90;99.90;;;;;;5093261;28;20447;-52
2023/09/27 06:58:25;;;;;;;7.55;4.07;;;14.90;99.90;;;;;;5093243;28;20028;-53
2023/09/27 07:00:54;;;;;;;6.40;3.95;;;15.10;99.90;;;;;;5093423;28;20028;-52
2023/09/27 07:03:24;;;;;;;8.10;4.60;;;15.10;99.90;;;;;;5093305;28;20032;-50
2023/09/27 07:05:53;;;;;;;7.10;3.90;;;15.10;99.90;;;;;;5093324;28;20028;-51
2023/09/27 07:08:20;;;;;;;7.57;3.67;;;15.20;99.90;;;;;;5093191;28;20080;-50
2023/09/27 07:10:47;;;;;;;6.90;3.78;;;15.10;99.90;;;;;;5093102;28;20119;-53
2023/09/27 07:13:12;;;;;;;7.63;4.30;;;15.10;99.90;;;;;;5093209;28;20044;-53
2023/09/27 07:15:38;;;;;;;7.35;4.20;;;15.20;99.90;;;;;;5093307;28;20039;-52
2023/09/27 07:18:05;;;;;;;7.47;3.72;;;15.20;99.90;;;;;;5093067;28;20294;-52
2023/09/27 07:20:34;;;;;;;7.90;3.92;;;15.20;99.90;;;;;;5092851;28;20032;-52
2023/09/27 07:23:04;;;;;;;6.38;3.85;;;15.30;99.90;;;;;;5092823;28;20040;-54
2023/09/27 07:25:32;;;;;;;;;;;15.30;99.90;;;;;;5093692;28;20035;-53
2023/09/27 07:28:00;;;;;;;6.45;3.72;;;15.40;99.90;;;;;;5092948;28;20003;-54
2023/09/27 07:30:26;;;;;;;7.97;4.28;;;15.60;99.90;;;;;;5092717;28;20032;-53
2023/09/27 07:32:53;;;;;;;7.97;4.15;;;15.70;99.90;;;;;;5092839;28;20032;-54
2023/09/27 07:35:21;;;;;;;7.82;3.90;;;15.60;99.90;;;;;;5074543;28;20064;-52
2023/09/27 07:37:47;;;;;;;8.18;4.30;;;15.70;99.90;;;;;;5092455;28;20040;-54
2023/09/27 07:40:14;;;;;;;7.50;3.95;;;15.80;99.90;;;;;;5092291;28;20388;-54
2023/09/27 07:42:44;;;;;;;8.20;4.60;;;15.90;99.90;;;;;;5092622;28;20123;-51
2023/09/27 07:47:43;;;;;;;9.07;4.32;;;16.20;99.90;;;;;;5091863;28;20036;-54
2023/09/27 07:50:10;;;;;;;13.63;4.65;;;16.40;99.90;;;;;;5092044;28;20039;-53
2023/09/27 07:52:36;;;;;;;7.88;4.10;;;16.50;99.90;;;;;;5092487;28;20024;-54
2023/09/27 07:55:04;;;;;;;5.43;3.65;;;16.60;99.90;;;;;;5092339;28;20032;-54
2023/09/27 07:57:30;;;;;;;7.90;4.07;;;16.80;99.90;;;;;;5092188;28;20040;-54
2023/09/27 07:59:55;;;;;;;8.15;4.10;;;16.90;99.90;;;;;;5092535;28;20462;-54
2023/09/27 08:02:21;;;;;;;8.27;3.70;;;17.00;99.90;;;;;;5092276;28;20480;-52
2023/09/27 08:04:49;;;;;;;8.10;3.65;;;17.10;99.90;;;;;;5092154;28;20536;-53
2023/09/27 08:07:14;;;;;;;12.57;6.20;;;17.10;99.90;;;;;;5092180;28;20114;-53
2023/09/27 08:09:42;;;;;;;14.88;7.88;;;17.30;99.90;;;;;;5091955;28;20099;-52
2023/09/27 08:12:07;;;;;;;7.20;3.80;;;17.40;99.90;;;;;;5091968;28;20042;-52
2023/09/27 08:14:36;;;;;;;5.40;3.42;;;17.50;99.90;;;;;;5092238;28;20107;-53
2023/09/27 08:17:02;;;;;;;5.18;3.03;;;17.60;99.90;;;;;;5092107;28;20042;-52
2023/09/27 08:19:29;;;;;;;4.90;2.92;;;17.70;99.90;;;;;;5092002;28;20051;-54
2023/09/27 08:21:56;;;;;;;8.07;3.58;;;17.80;99.90;;;;;;5092174;28;20396;-54
2023/09/27 08:24:22;;;;;;;6.80;3.13;;;18.00;99.90;;;;;;5092010;28;20089;-50
2023/09/27 08:26:48;;;;;;;7.00;3.42;;;18.10;99.90;;;;;;5092033;28;20392;-49
2023/09/27 08:29:13;;;;;;;5.97;3.20;;;18.10;99.90;;;;;;5091834;28;20031;-54
2023/09/27 08:31:40;;;;;;;7.35;3.20;;;18.30;99.90;;;;;;5091548;28;20028;-54
2023/09/27 08:34:06;;;;;;;6.65;2.95;;;18.30;99.90;;;;;;5091676;28;20040;-54
2023/09/27 08:36:31;;;;;;;7.18;3.47;;;18.40;99.90;;;;;;5091801;28;20085;-54
2023/09/27 08:38:57;;;;;;;6.53;2.95;;;18.50;99.90;;;;;;5091358;28;20028;-53
2023/09/27 08:41:23;;;;;;;7.30;3.38;;;18.40;99.90;;;;;;5091267;28;20110;-52
2023/09/27 08:43:51;;;;;;;6.88;3.10;;;18.50;99.90;;;;;;5091476;28;20031;-52
2023/09/27 08:46:19;;;;;;;4.97;2.97;;;18.50;99.90;;;;;;5091450;28;20092;-54
2023/09/27 08:48:45;;;;;;;5.15;2.63;;;18.60;99.90;;;;;;5091117;28;20032;-54
2023/09/27 08:51:11;;;;;;;6.85;3.10;;;18.70;99.90;;;;;;5091229;28;20047;-54
2023/09/27 08:53:38;;;;;;;5.30;2.95;;;19.00;99.90;;;;;;5091464;28;20028;-54
2023/09/27 08:56:06;;;;;;;6.90;3.05;;;19.10;99.90;;;;;;5091224;28;20048;-53
2023/09/27 08:58:34;;;;;;;5.43;2.80;;;19.20;99.90;;;;;;5091000;28;20024;-54
2023/09/27 09:01:01;;;;;;;4.40;2.78;;;19.30;99.90;;;;;;5090266;28;20028;-54
2023/09/27 09:03:27;;;;;;;4.85;2.88;;;19.40;99.90;;;;;;5091483;28;20377;-54
2023/09/27 09:05:55;;;;;;;5.28;2.78;;;19.60;99.90;;;;;;5091473;28;20024;-53
2023/09/27 09:08:20;;;;;;;9.35;2.72;;;19.70;99.90;;;;;;5091089;28;20472;-53
2023/09/27 09:10:46;;;;;;;4.05;2.55;;;19.90;99.90;;;;;;5090667;28;20035;-54
2023/09/27 09:13:12;;;;;;;3.88;2.10;;;20.20;99.90;;;;;;5091670;28;20032;-54
2023/09/27 09:15:41;;;;;;;6.13;2.50;;;20.30;99.90;;;;;;5090930;28;20059;-54
2023/09/27 09:18:28;;;;;;;4.82;2.15;;;20.50;99.90;;;;;;5090810;28;20036;-54
2023/09/27 09:20:59;;;;;;;4.13;2.40;;;20.50;99.90;;;;;;5090957;28;20024;-52
2023/09/27 09:23:33;;;;;;;5.05;2.45;;;20.70;99.90;;;;;;5090723;28;20085;-53
2023/09/27 09:26:09;;;;;;;4.05;2.10;;;20.80;99.90;;;;;;5072446;28;20400;-53
2023/09/27 09:28:52;;;;;;;3.42;2.03;;;21.00;99.90;;;;;;5090553;28;20032;-54
2023/09/27 09:31:28;;;;;;;5.57;2.40;;;21.20;99.90;;;;;;5072604;28;20050;-54
2023/09/27 09:34:07;;;;;;;4.75;2.20;;;21.30;99.90;;;;;;5090673;28;20051;-50
2023/09/27 09:36:33;;;;;;;;;;;21.40;99.90;;;;;;5091328;28;20085;-54
2023/09/27 09:39:08;;;;;;;3.30;1.92;;;21.50;99.90;;;;;;5090388;28;19908;-54
2023/09/27 09:41:47;;;;;;;4.20;2.10;;;21.50;99.90;;;;;;5090507;28;20028;-54
2023/09/27 09:44:23;;;;;;;6.05;2.20;;;21.50;99.90;;;;;;5090587;28;20384;-50
2023/09/27 09:46:51;;;;;;;5.57;2.70;;;21.60;99.90;;;;;;5090502;28;20036;-54
2023/09/27 09:49:18;;;;;;;4.50;2.17;;;21.60;99.90;;;;;;5090509;28;20035;-50
2023/09/27 09:51:49;;;;;;;12.52;2.90;;;21.50;99.90;;;;;;5072270;28;20433;-54
2023/09/27 09:54:37;;;;;;;6.07;2.22;;;21.70;99.90;;;;;;5090537;28;20055;-54
2023/09/27 09:57:05;;;;;;;3.45;2.17;;;22.00;99.90;;;;;;5090351;28;20127;-53
2023/09/27 09:59:38;;;;;;;3.80;2.28;;;22.50;99.90;;;;;;5090176;28;20036;-54
2023/09/27 10:02:18;;;;;;;5.18;2.40;;;22.80;99.90;;;;;;5090280;28;20484;-54
2023/09/27 10:04:45;;;;;;;3.88;1.98;;;23.10;99.90;;;;;;5090463;28;20115;-54
2023/09/27 10:07:14;;;;;;;4.85;2.13;;;23.40;99.90;;;;;;5090354;28;20097;-54
2023/09/27 10:09:41;;;;;;;3.20;1.88;;;23.70;99.90;;;;;;5089936;28;20039;-52
2023/09/27 10:12:07;;;;;;;4.15;2.30;;;23.70;99.90;;;;;;5091910;28;20107;-51
2023/09/27 10:14:33;;;;;;;4.65;1.65;;;23.80;99.90;;;;;;5094328;28;20055;-52
2023/09/27 10:16:58;;;;;;;4.28;1.80;;;24.20;99.90;;;;;;5093974;28;20488;-50
2023/09/27 10:19:27;;;;;;;4.65;2.17;;;24.70;99.90;;;;;;5093936;28;20020;-54
2023/09/27 10:22:04;;;;;;;;;;;25.00;99.90;;;;;;5094276;28;20053;-54
2023/09/27 10:24:33;;;;;;;3.65;1.75;;;25.20;99.90;;;;;;5075670;28;19958;-52
2023/09/27 10:26:59;;;;;;;3.90;2.10;;;26.00;99.90;;;;;;5093868;28;20032;-51
2023/09/27 10:29:24;;;;;;;3.10;1.80;;;27.20;99.50;;;;;;5093683;28;20028;-48
2023/09/27 10:31:56;;;;;;;4.03;1.80;;;27.70;98.00;;;;;;5093594;28;20388;-53
2023/09/27 10:34:28;;;;;;;3.08;1.70;;;28.60;97.70;;;;;;5093748;28;20472;-50
2023/09/27 10:36:54;;;;;;;2.58;1.63;;;29.40;95.00;;;;;;5093813;28;20081;-53
2023/09/27 10:39:20;;;;;;;5.43;1.83;;;29.60;93.00;;;;;;5075379;28;20024;-50
2023/09/27 10:41:48;;;;;;;3.20;1.85;;;29.50;92.20;;;;;;5093596;28;20373;-50
2023/09/27 10:44:30;;;;;;;;;;;29.30;91.90;;;;;;5094404;28;20093;-51
2023/09/27 10:46:57;;;;;;;3.25;1.85;;;28.40;92.60;;;;;;5094109;28;20275;-50
2023/09/27 10:49:32;;;;;;;2.97;2.05;;;27.70;92.80;;;;;;5075234;28;20412;-49
2023/09/27 10:51:58;;;;;;;5.35;1.90;;;27.10;94.10;;;;;;5093321;28;20059;-53
2023/09/27 10:54:24;;;;;;;3.03;1.80;;;26.60;94.60;;;;;;5093501;28;20420;-53
2023/09/27 10:56:53;;;;;;;3.45;1.60;;;26.40;94.70;;;;;;5093607;28;20032;-53
2023/09/27 10:59:23;;;;;;;5.72;1.83;;;26.20;95.90;;;;;;5093095;28;20111;-52
2023/09/27 11:01:48;;;;;;;2.63;1.77;;;25.80;96.30;;;;;;5093680;28;20405;-53
2023/09/27 11:04:14;;;;;;;4.75;2.10;;;25.70;96.00;;;;;;5093548;28;20036;-49
2023/09/27 11:06:45;;;;;;;3.35;1.90;;;25.50;96.00;;;;;;5093346;28;20035;-53
2023/09/27 11:09:12;;;;;;;3.72;1.70;;;25.30;96.60;;;;;;5093123;28;20036;-53
2023/09/27 11:11:38;;;;;;;3.40;2.00;;;25.10;96.90;;;;;;5092923;28;20036;-53
2023/09/27 11:14:04;;;;;;;3.53;1.63;;;24.90;97.30;;;;;;5093087;28;20411;-52
2023/09/27 11:16:30;;;;;;;3.65;1.95;;;24.70;97.40;;;;;;5093113;28;20314;-48
2023/09/27 11:18:56;;;;;;;3.30;1.88;;;24.50;97.90;;;;;;5074652;28;20105;-49
2023/09/27 11:21:24;;;;;;;2.53;1.75;;;24.40;98.60;;;;;;5093061;28;20464;-54
2023/09/27 11:23:56;;;;;;;3.13;2.00;;;24.30;98.90;;;;;;5091884;28;20068;-53
2023/09/27 11:26:30;;;;;;;4.13;1.92;;;24.20;98.70;;;;;;5092885;28;20472;-54
2023/09/27 11:28:58;;;;;;;3.38;1.95;;;24.10;99.10;;;;;;5092595;28;20089;-54
2023/09/27 11:31:26;;;;;;;4.70;2.00;;;24.10;99.40;;;;;;5092561;28;20046;-53
2023/09/27 11:33:52;;;;;;;3.67;2.10;;;24.10;99.60;;;;;;5092760;28;20040;-53
2023/09/27 11:36:17;;;;;;;5.22;2.60;;;24.20;99.90;;;;;;5092652;28;20080;-53
2023/09/27 11:38:50;;;;;;;3.85;2.25;;;24.10;99.70;;;;;;5092317;28;20343;-52
2023/09/27 11:41:18;;;;;;;4.70;2.20;;;23.90;99.90;;;;;;5092746;28;20027;-53
2023/09/27 11:43:45;;;;;;;4.53;2.00;;;23.70;99.90;;;;;;5092640;28;20036;-51
2023/09/27 11:46:11;;;;;;;4.30;2.03;;;23.50;99.90;;;;;;5092770;28;20373;-53
2023/09/27 11:48:39;;;;;;;5.43;2.00;;;23.70;99.90;;;;;;5092664;28;20423;-52
2023/09/27 11:51:04;;;;;;;4.03;1.85;;;24.10;99.90;;;;;;5092232;28;20044;-52
2023/09/27 11:53:30;;;;;;;3.53;1.80;;;24.40;99.90;;;;;;5092412;28;20035;-54
2023/09/27 11:55:57;;;;;;;3.13;1.90;;;24.50;99.60;;;;;;5092716;28;20027;-54
2023/09/27 11:58:23;;;;;;;3.30;2.00;;;24.50;99.40;;;;;;5092250;28;20110;-50
2023/09/27 12:00:49;;;;;;;4.10;2.20;;;24.80;99.00;;;;;;5092225;28;20060;-53
2023/09/27 12:03:14;;;;;;;4.22;1.98;;;24.90;98.70;;;;;;5092598;28;20048;-53
2023/09/27 12:05:40;;;;;;;4.10;2.03;;;24.80;98.90;;;;;;5092578;28;20586;-54
2023/09/27 12:08:06;;;;;;;4.05;1.75;;;24.90;99.90;;;;;;5092287;28;20400;-54
2023/09/27 12:10:32;;;;;;;3.97;1.77;;;25.00;99.50;;;;;;5091640;28;20369;-54
2023/09/27 12:12:58;;;;;;;3.15;2.08;;;25.00;99.70;;;;;;5092176;28;20099;-49
2023/09/27 12:15:24;;;;;;;3.28;1.95;;;25.20;99.90;;;;;;5092198;28;20503;-49
2023/09/27 12:17:49;;;;;;;4.30;1.92;;;25.50;98.60;;;;;;5091937;28;20024;-50
2023/09/27 12:20:15;;;;;;;2.65;1.55;;;25.70;98.60;;;;;;5091477;28;20024;-49
2023/09/27 12:22:41;;;;;;;3.47;1.88;;;25.70;98.60;;;;;;5091885;28;20408;-50
2023/09/27 12:25:07;;;;;;;2.67;1.63;;;25.60;98.50;;;;;;5091763;28;20044;-51
2023/09/27 12:27:34;;;;;;;4.32;1.95;;;25.60;99.20;;;;;;5073656;28;20035;-49
2023/09/27 12:30:00;;;;;;;4.53;2.33;;;25.50;99.10;;;;;;5091412;28;20119;-49
2023/09/27 12:32:26;;;;;;;3.38;1.75;;;25.40;99.00;;;;;;5091698;28;20067;-49
2023/09/27 12:34:52;;;;;;;2.65;1.70;;;25.40;98.90;;;;;;5091676;28;20035;-49
2023/09/27 12:37:17;;;;;;;3.20;2.00;;;25.40;98.30;;;;;;5091558;28;20039;-50
2023/09/27 12:39:43;;;;;;;3.05;1.75;;;25.20;98.60;;;;;;5091041;28;20024;-51
2023/09/27 12:42:09;;;;;;;4.07;1.67;;;25.20;99.20;;;;;;5091436;28;20514;-50
2023/09/27 12:44:34;;;;;;;3.42;1.88;;;25.10;99.60;;;;;;5091745;28;20051;-50
2023/09/27 12:47:00;;;;;;;4.70;2.10;;;25.00;99.50;;;;;;5092124;28;20020;-54
2023/09/27 12:49:26;;;;;;;6.60;1.92;;;25.00;99.90;;;;;;5092007;28;20067;-54